createdAt,value
2023-05-21T00:01:07.376Z,99.90
2023-05-21T00:03:36.217Z,99.90
2023-05-21T00:06:03.908Z,99.90
2023-05-21T00:08:31.152Z,99.90
2023-05-21T00:10:58.238Z,99.90
2023-05-21T00:13:25.063Z,99.90
2023-05-21T00:15:51.913Z,99.90
2023-05-21T00:18:18.874Z,99.90
2023-05-21T00:20:45.860Z,99.90
2023-05-21T00:23:12.856Z,99.90
2023-05-21T00:25:39.636Z,99.90
2023-05-21T00:28:06.611Z,99.90
2023-05-21T00:30:33.384Z,99.90
2023-05-21T00:33:02.621Z,99.90
2023-05-21T00:35:29.735Z,99.90
2023-05-21T00:37:57.313Z,99.90
2023-05-21T00:40:24.313Z,99.90
2023-05-21T00:42:51.094Z,99.90
2023-05-21T00:45:17.996Z,99.90
2023-05-21T00:47:45.956Z,99.90
2023-05-21T00:50:14.868Z,99.90
2023-05-21T00:52:43.201Z,99.90
2023-05-21T00:55:10.972Z,99.90
2023-05-21T00:57:39.235Z,99.90
2023-05-21T01:00:10.706Z,99.90
2023-05-21T01:02:38.203Z,99.90
2023-05-21T01:05:06.726Z,99.90
2023-05-21T01:07:35.758Z,99.90
2023-05-21T01:10:07.797Z,99.90
2023-05-21T01:12:36.496Z,99.90
2023-05-21T01:15:04.811Z,99.90
2023-05-21T01:17:32.115Z,99.90
2023-05-21T01:20:00.279Z,99.90
2023-05-21T01:22:32.354Z,99.90
2023-05-21T01:25:02.771Z,99.90
2023-05-21T01:27:29.719Z,99.90
2023-05-21T01:29:57.216Z,99.90
2023-05-21T01:32:24.025Z,99.90
2023-05-21T01:34:57.057Z,99.90
2023-05-21T01:37:36.619Z,99.90
2023-05-21T01:40:13.944Z,99.90
2023-05-21T01:42:44.256Z,99.90
2023-05-21T01:45:14.543Z,99.90
2023-05-21T01:47:45.075Z,99.90
2023-05-21T01:50:12.239Z,99.90
2023-05-21T01:52:39.066Z,99.90
2023-05-21T01:55:06.300Z,99.90
2023-05-21T01:57:33.082Z,99.90
2023-05-21T02:00:01.199Z,99.90
2023-05-21T02:02:28.293Z,99.90
2023-05-21T02:04:55.081Z,99.90
2023-05-21T02:07:22.654Z,99.90
2023-05-21T02:09:49.421Z,99.90
2023-05-21T02:12:16.243Z,99.90
2023-05-21T02:14:43.043Z,99.90
2023-05-21T02:17:10.348Z,99.90
2023-05-21T02:19:37.290Z,99.90
2023-05-21T02:22:04.155Z,99.90
2023-05-21T02:24:31.361Z,99.90
2023-05-21T02:26:58.618Z,99.90
2023-05-21T02:29:25.547Z,99.90
2023-05-21T02:31:52.279Z,99.90
2023-05-21T02:34:20.708Z,99.90
2023-05-21T02:36:52.383Z,99.90
2023-05-21T02:39:19.654Z,99.90
2023-05-21T02:41:47.654Z,99.90
2023-05-21T02:44:14.426Z,99.90
2023-05-21T02:46:41.214Z,99.90
2023-05-21T02:49:07.970Z,99.90
2023-05-21T02:51:34.715Z,99.90
2023-05-21T02:54:01.464Z,99.90
2023-05-21T02:56:28.619Z,99.90
2023-05-21T02:58:55.356Z,99.90
2023-05-21T03:01:22.091Z,99.90
2023-05-21T03:03:48.980Z,99.90
2023-05-21T03:06:16.400Z,99.90
2023-05-21T03:08:43.199Z,99.90
2023-05-21T03:11:10.021Z,99.90
2023-05-21T03:13:36.820Z,99.90
2023-05-21T03:16:05.304Z,99.90
2023-05-21T03:18:32.083Z,99.90
2023-05-21T03:20:59.046Z,99.90
2023-05-21T03:23:26.920Z,99.90
2023-05-21T03:25:54.090Z,99.90
2023-05-21T03:28:20.995Z,99.90
2023-05-21T03:30:49.717Z,99.90
2023-05-21T03:33:16.615Z,99.90
2023-05-21T03:35:43.462Z,99.90
2023-05-21T03:38:10.276Z,99.90
2023-05-21T03:40:37.053Z,99.90
2023-05-21T03:43:03.812Z,99.90
2023-05-21T03:45:30.720Z,99.90
2023-05-21T03:47:57.609Z,99.90
2023-05-21T03:50:24.465Z,99.90
2023-05-21T03:52:51.242Z,99.90
2023-05-21T03:55:18.011Z,99.90
2023-05-21T03:57:44.742Z,99.90
2023-05-21T04:00:11.922Z,99.90
2023-05-21T04:02:38.820Z,99.90
2023-05-21T04:05:07.091Z,99.90
2023-05-21T04:07:33.944Z,99.90
2023-05-21T04:10:00.666Z,99.90
2023-05-21T04:12:27.440Z,99.90
2023-05-21T04:14:54.276Z,99.90
2023-05-21T04:17:21.704Z,99.90
2023-05-21T04:19:48.790Z,99.90
2023-05-21T04:22:15.928Z,99.90
2023-05-21T04:24:42.732Z,99.90
2023-05-21T04:27:10.055Z,99.90
2023-05-21T04:29:37.692Z,99.90
2023-05-21T04:32:05.597Z,99.90
2023-05-21T04:34:33.852Z,99.90
2023-05-21T04:37:02.202Z,99.90
2023-05-21T04:39:29.199Z,99.90
2023-05-21T04:41:56.643Z,99.90
2023-05-21T04:44:23.495Z,99.90
2023-05-21T04:46:50.683Z,99.90
2023-05-21T04:49:17.504Z,99.90
2023-05-21T04:51:44.207Z,99.90
2023-05-21T04:54:11.175Z,99.90
2023-05-21T04:56:38.035Z,99.90
2023-05-21T04:59:06.201Z,99.90
2023-05-21T05:01:35.040Z,99.90
2023-05-21T05:04:01.947Z,99.90
2023-05-21T05:06:28.798Z,99.90
2023-05-21T05:08:55.577Z,99.90
2023-05-21T05:11:22.501Z,99.90
2023-05-21T05:13:49.433Z,99.90
2023-05-21T05:16:18.444Z,99.90
2023-05-21T05:18:45.329Z,99.90
2023-05-21T05:21:12.206Z,99.90
2023-05-21T05:23:38.959Z,99.90
2023-05-21T05:26:06.046Z,99.90
2023-05-21T05:28:32.900Z,99.90
2023-05-21T05:30:59.652Z,99.90
2023-05-21T05:33:26.455Z,99.90
2023-05-21T05:35:53.200Z,99.90
2023-05-21T05:38:20.450Z,99.90
2023-05-21T05:40:47.212Z,99.90
2023-05-21T05:43:13.984Z,99.90
2023-05-21T05:45:40.899Z,99.90
2023-05-21T05:48:07.840Z,99.90
2023-05-21T05:50:34.654Z,99.90
2023-05-21T05:53:01.392Z,99.90
2023-05-21T05:55:28.250Z,99.90
2023-05-21T05:57:55.061Z,99.90
2023-05-21T06:00:22.295Z,99.90
2023-05-21T06:02:49.200Z,99.90
2023-05-21T06:05:16.487Z,99.90
2023-05-21T06:07:43.298Z,99.90
2023-05-21T06:10:10.799Z,99.90
2023-05-21T06:12:37.592Z,99.90
2023-05-21T06:15:05.630Z,99.90
2023-05-21T06:17:32.494Z,99.90
2023-05-21T06:19:59.499Z,99.90
2023-05-21T06:22:26.266Z,99.90
2023-05-21T06:24:55.985Z,99.90
2023-05-21T06:27:22.769Z,99.90
2023-05-21T06:29:49.530Z,99.90
2023-05-21T06:32:16.290Z,99.90
2023-05-21T06:34:43.100Z,99.90
2023-05-21T06:37:09.803Z,99.90
2023-05-21T06:39:36.571Z,99.90
2023-05-21T06:42:03.361Z,99.90
2023-05-21T06:44:30.155Z,99.90
2023-05-21T06:46:56.918Z,99.90
2023-05-21T06:49:23.735Z,99.90
2023-05-21T06:51:50.475Z,99.90
2023-05-21T06:54:17.237Z,99.90
2023-05-21T06:56:44.022Z,99.90
2023-05-21T06:59:10.947Z,99.90
2023-05-21T07:01:37.807Z,99.90
2023-05-21T07:04:04.787Z,99.90
2023-05-21T07:06:32.113Z,99.90
2023-05-21T07:08:58.867Z,99.90
2023-05-21T07:11:28.797Z,99.90
2023-05-21T07:14:00.359Z,99.90
2023-05-21T07:16:27.180Z,99.90
2023-05-21T07:18:53.955Z,99.90
2023-05-21T07:21:20.858Z,99.90
2023-05-21T07:23:47.582Z,99.90
2023-05-21T07:26:14.373Z,99.90
2023-05-21T07:28:41.383Z,99.90
2023-05-21T07:31:08.476Z,99.90
2023-05-21T07:33:35.410Z,99.90
2023-05-21T07:36:02.234Z,99.90
2023-05-21T07:38:29.014Z,99.90
2023-05-21T07:40:56.834Z,99.90
2023-05-21T07:43:24.119Z,99.90
2023-05-21T07:45:51.267Z,99.90
2023-05-21T07:48:18.886Z,99.90
2023-05-21T07:50:48.018Z,99.90
2023-05-21T07:53:14.756Z,99.90
2023-05-21T07:55:47.747Z,99.90
2023-05-21T07:58:18.220Z,99.90
2023-05-21T08:00:47.283Z,99.90
2023-05-21T08:03:18.504Z,99.90
2023-05-21T08:05:49.288Z,99.90
2023-05-21T08:08:17.785Z,99.90
2023-05-21T08:10:44.845Z,99.90
2023-05-21T08:13:16.548Z,99.90
2023-05-21T08:15:43.729Z,99.90
2023-05-21T08:18:11.938Z,99.90
2023-05-21T08:20:38.879Z,99.90
2023-05-21T08:23:05.632Z,99.90
2023-05-21T08:25:32.417Z,99.90
2023-05-21T08:27:59.269Z,99.90
2023-05-21T08:30:26.285Z,99.90
2023-05-21T08:32:53.083Z,99.90
2023-05-21T08:35:19.919Z,99.90
2023-05-21T08:37:46.682Z,99.90
2023-05-21T08:40:13.669Z,99.90
2023-05-21T08:42:45.135Z,99.90
2023-05-21T08:45:13.389Z,99.90
2023-05-21T08:47:44.024Z,99.90
2023-05-21T08:50:13.864Z,99.90
2023-05-21T08:52:41.344Z,99.90
2023-05-21T08:55:09.263Z,99.90
2023-05-21T08:57:36.727Z,99.90
2023-05-21T09:00:06.469Z,99.90
2023-05-21T09:02:34.763Z,99.90
2023-05-21T09:05:03.248Z,99.90
2023-05-21T09:07:34.282Z,99.90
2023-05-21T09:10:08.746Z,99.90
2023-05-21T09:12:35.927Z,99.90
2023-05-21T09:15:03.885Z,99.90
2023-05-21T09:17:30.967Z,99.90
2023-05-21T09:20:17.533Z,99.90
2023-05-21T09:22:45.594Z,99.90
2023-05-21T09:25:15.882Z,99.90
2023-05-21T09:27:43.009Z,99.90
2023-05-21T09:30:15.498Z,99.80
2023-05-21T09:32:43.116Z,99.50
2023-05-21T09:35:11.938Z,99.10
2023-05-21T09:37:39.456Z,98.80
2023-05-21T09:40:16.489Z,98.70
2023-05-21T09:42:54.190Z,98.80
2023-05-21T09:45:28.113Z,98.60
2023-05-21T09:47:56.390Z,97.70
2023-05-21T09:50:27.894Z,97.50
2023-05-21T09:52:55.675Z,97.50
2023-05-21T09:55:23.541Z,97.30
2023-05-21T09:57:51.434Z,97.20
2023-05-21T10:00:21.410Z,97.30
2023-05-21T10:02:49.764Z,97.40
2023-05-21T10:05:17.744Z,97.30
2023-05-21T10:07:51.533Z,96.80
2023-05-21T10:10:24.143Z,96.70
2023-05-21T10:13:12.579Z,96.60
2023-05-21T10:15:44.157Z,96.80
2023-05-21T10:18:13.041Z,96.50
2023-05-21T10:20:40.362Z,96.20
2023-05-21T10:23:07.650Z,96.40
2023-05-21T10:25:36.164Z,96.10
2023-05-21T10:28:03.492Z,95.80
2023-05-21T10:30:31.195Z,96.00
2023-05-21T10:32:59.696Z,95.90
2023-05-21T10:35:28.588Z,95.40
2023-05-21T10:37:59.038Z,95.50
2023-05-21T10:40:25.993Z,96.10
2023-05-21T10:43:18.965Z,95.90
2023-05-21T10:46:01.598Z,95.00
2023-05-21T10:48:43.441Z,95.10
2023-05-21T10:51:25.653Z,95.10
2023-05-21T10:54:20.435Z,94.50
2023-05-21T10:57:05.709Z,94.60
2023-05-21T10:59:57.938Z,95.00
2023-05-21T11:02:26.717Z,95.00
2023-05-21T11:05:00.650Z,95.00
2023-05-21T11:07:53.778Z,94.80
2023-05-21T11:10:40.882Z,94.50
2023-05-21T11:13:08.476Z,94.20
2023-05-21T11:16:01.471Z,94.50
2023-05-21T11:18:33.981Z,94.70
2023-05-21T11:21:18.621Z,94.80
2023-05-21T11:23:51.547Z,95.20
2023-05-21T11:26:24.213Z,94.60
2023-05-21T11:29:11.395Z,94.50
2023-05-21T11:31:38.730Z,93.90
2023-05-21T11:34:28.981Z,93.70
2023-05-21T11:37:23.179Z,93.20
2023-05-21T11:39:51.153Z,93.20
2023-05-21T11:42:38.909Z,93.60
2023-05-21T11:45:06.163Z,94.10
2023-05-21T11:47:33.105Z,94.60
2023-05-21T11:50:01.897Z,93.90
2023-05-21T11:52:33.196Z,93.70
2023-05-21T11:55:00.034Z,93.80
2023-05-21T11:57:31.266Z,93.50
2023-05-21T12:00:01.568Z,93.20
2023-05-21T12:02:33.059Z,93.20
2023-05-21T12:05:00.602Z,93.20
2023-05-21T12:07:29.770Z,93.40
2023-05-21T12:09:56.956Z,93.50
2023-05-21T12:12:29.385Z,93.30
2023-05-21T12:15:02.924Z,93.70
2023-05-21T12:17:31.712Z,93.60
2023-05-21T12:19:58.970Z,93.20
2023-05-21T12:22:27.857Z,93.30
2023-05-21T12:24:54.663Z,93.10
2023-05-21T12:27:22.230Z,93.10
2023-05-21T12:29:53.100Z,92.80
2023-05-21T12:32:21.303Z,92.50
2023-05-21T12:34:54.477Z,92.70
2023-05-21T12:37:22.319Z,92.40
2023-05-21T12:39:51.301Z,92.10
2023-05-21T12:42:26.863Z,92.10
2023-05-21T12:44:54.322Z,92.10
2023-05-21T12:47:25.029Z,91.70
2023-05-21T12:49:55.838Z,92.20
2023-05-21T12:52:23.117Z,91.90
2023-05-21T12:54:52.237Z,92.10
2023-05-21T12:57:21.212Z,92.00
2023-05-21T12:59:52.231Z,92.00
2023-05-21T13:02:38.326Z,92.10
2023-05-21T13:05:09.776Z,91.90
2023-05-21T13:07:38.576Z,91.60
2023-05-21T13:10:06.520Z,91.60
2023-05-21T13:12:34.507Z,91.60
2023-05-21T13:15:03.299Z,91.80
2023-05-21T13:17:30.391Z,92.10
2023-05-21T13:20:09.296Z,92.10
2023-05-21T13:22:39.147Z,91.60
2023-05-21T13:25:07.150Z,92.10
2023-05-21T13:27:33.966Z,91.80
2023-05-21T13:30:01.053Z,91.40
2023-05-21T13:32:27.919Z,91.20
2023-05-21T13:34:54.738Z,91.30
2023-05-21T13:37:21.531Z,91.50
2023-05-21T13:39:48.417Z,91.50
2023-05-21T13:42:15.906Z,91.40
2023-05-21T13:44:42.748Z,91.30
2023-05-21T13:47:10.591Z,91.20
2023-05-21T13:49:38.438Z,91.40
2023-05-21T13:52:06.067Z,91.20
2023-05-21T13:54:32.907Z,91.20
2023-05-21T13:57:00.081Z,91.00
2023-05-21T13:59:26.919Z,90.70
2023-05-21T14:01:53.822Z,90.30
2023-05-21T14:04:21.288Z,90.10
2023-05-21T14:06:48.321Z,90.30
2023-05-21T14:09:15.331Z,90.00
2023-05-21T14:11:42.194Z,90.10
2023-05-21T14:14:08.958Z,90.20
2023-05-21T14:16:36.427Z,90.50
2023-05-21T14:19:03.727Z,90.50
2023-05-21T14:21:31.665Z,90.40
2023-05-21T14:23:58.506Z,90.50
2023-05-21T14:26:26.695Z,90.60
2023-05-21T14:28:53.458Z,90.40
2023-05-21T14:31:21.592Z,90.50
2023-05-21T14:33:48.399Z,90.70
2023-05-21T14:36:15.950Z,90.50
2023-05-21T14:38:42.814Z,90.30
2023-05-21T14:41:09.914Z,90.40
2023-05-21T14:43:36.666Z,90.40
2023-05-21T14:46:03.734Z,90.50
2023-05-21T14:48:30.505Z,90.50
2023-05-21T14:50:57.244Z,90.60
2023-05-21T14:53:24.008Z,90.50
2023-05-21T14:55:50.804Z,90.50
2023-05-21T14:58:17.741Z,90.50
2023-05-21T15:00:44.605Z,90.60
2023-05-21T15:03:12.933Z,90.30
2023-05-21T15:05:39.925Z,90.20
2023-05-21T15:08:08.094Z,90.10
2023-05-21T15:10:34.927Z,90.10
2023-05-21T15:13:01.670Z,90.20
2023-05-21T15:15:28.524Z,90.00
2023-05-21T15:17:58.073Z,90.00
2023-05-21T15:20:25.114Z,89.40
2023-05-21T15:22:59.077Z,89.40
2023-05-21T15:25:35.856Z,89.60
2023-05-21T15:28:02.811Z,89.70
2023-05-21T15:30:29.569Z,90.10
2023-05-21T15:32:56.329Z,89.70
2023-05-21T15:35:23.242Z,89.00
2023-05-21T15:37:50.113Z,88.90
2023-05-21T15:40:16.910Z,89.40
2023-05-21T15:42:43.694Z,89.50
2023-05-21T15:45:10.870Z,89.10
2023-05-21T15:47:42.730Z,89.00
2023-05-21T15:50:10.752Z,88.30
2023-05-21T15:52:37.556Z,88.30
2023-05-21T15:55:04.579Z,88.90
2023-05-21T15:57:31.379Z,89.30
2023-05-21T15:59:58.139Z,89.50
2023-05-21T16:02:24.901Z,89.40
2023-05-21T16:04:51.975Z,89.30
2023-05-21T16:07:19.184Z,89.10
2023-05-21T16:09:45.968Z,89.30
2023-05-21T16:12:13.394Z,89.30
2023-05-21T16:14:40.159Z,89.40
2023-05-21T16:17:07.166Z,90.00
2023-05-21T16:19:34.006Z,90.10
2023-05-21T16:22:01.880Z,90.10
2023-05-21T16:24:28.670Z,90.10
2023-05-21T16:26:55.467Z,89.80
2023-05-21T16:29:22.327Z,89.50
2023-05-21T16:31:49.203Z,90.10
2023-05-21T16:34:16.123Z,90.10
2023-05-21T16:36:42.846Z,89.80
2023-05-21T16:39:09.606Z,89.50
2023-05-21T16:41:36.467Z,90.00
2023-05-21T16:44:03.307Z,90.20
2023-05-21T16:46:30.116Z,90.20
2023-05-21T16:48:56.904Z,90.20
2023-05-21T16:51:23.628Z,90.30
2023-05-21T16:53:50.413Z,90.50
2023-05-21T16:56:17.196Z,90.80
2023-05-21T16:58:44.202Z,90.70
2023-05-21T17:01:11.159Z,90.50
2023-05-21T17:03:38.607Z,90.60
2023-05-21T17:06:07.544Z,90.60
2023-05-21T17:08:34.291Z,90.30
2023-05-21T17:11:01.107Z,90.30
2023-05-21T17:13:27.841Z,90.30
2023-05-21T17:15:54.736Z,90.80
2023-05-21T17:18:21.537Z,90.70
2023-05-21T17:20:48.326Z,90.90
2023-05-21T17:23:15.222Z,90.90
2023-05-21T17:25:42.108Z,91.00
2023-05-21T17:28:09.020Z,91.30
2023-05-21T17:30:35.893Z,91.60
2023-05-21T17:33:03.799Z,91.70
2023-05-21T17:35:30.703Z,91.80
2023-05-21T17:37:57.491Z,92.00
2023-05-21T17:40:25.026Z,92.40
2023-05-21T17:42:52.629Z,92.50
2023-05-21T17:45:20.080Z,92.60
2023-05-21T17:47:46.999Z,92.80
2023-05-21T17:50:13.761Z,93.10
2023-05-21T17:52:40.619Z,93.10
2023-05-21T17:55:08.133Z,93.10
2023-05-21T17:57:38.119Z,93.30
2023-05-21T18:00:06.776Z,93.30
2023-05-21T18:02:33.631Z,93.50
2023-05-21T18:05:00.546Z,93.80
2023-05-21T18:07:27.353Z,94.10
2023-05-21T18:09:54.116Z,94.20
2023-05-21T18:12:21.356Z,94.20
2023-05-21T18:14:48.232Z,94.20
2023-05-21T18:17:15.008Z,94.40
2023-05-21T18:19:41.758Z,94.60
2023-05-21T18:22:08.646Z,94.70
2023-05-21T18:24:37.475Z,94.70
2023-05-21T18:27:04.364Z,94.70
2023-05-21T18:29:31.187Z,94.90
2023-05-21T18:31:58.036Z,95.20
2023-05-21T18:34:24.818Z,95.50
2023-05-21T18:36:54.441Z,95.60
2023-05-21T18:39:24.595Z,95.90
2023-05-21T18:41:55.806Z,96.30
2023-05-21T18:44:29.707Z,95.90
2023-05-21T18:46:57.782Z,96.10
2023-05-21T18:49:24.807Z,96.30
2023-05-21T18:51:51.653Z,96.50
2023-05-21T18:54:18.401Z,97.00
2023-05-21T18:56:45.138Z,97.40
2023-05-21T18:59:11.892Z,97.70
2023-05-21T19:01:38.678Z,98.10
2023-05-21T19:04:05.739Z,98.50
2023-05-21T19:06:32.462Z,98.90
2023-05-21T19:08:59.361Z,99.00
2023-05-21T19:11:31.050Z,99.10
2023-05-21T19:13:58.962Z,99.40
2023-05-21T19:16:25.882Z,99.50
2023-05-21T19:18:52.826Z,99.80
2023-05-21T19:21:19.799Z,99.90
2023-05-21T19:23:53.352Z,99.90
2023-05-21T19:26:22.420Z,99.90
2023-05-21T19:28:53.307Z,99.90
2023-05-21T19:31:22.069Z,99.90
2023-05-21T19:33:49.372Z,99.90
2023-05-21T19:36:16.368Z,99.90
2023-05-21T19:38:48.283Z,99.90
2023-05-21T19:41:16.405Z,99.90
2023-05-21T19:43:43.302Z,99.90
2023-05-21T19:46:10.304Z,99.90
2023-05-21T19:48:37.277Z,99.90
2023-05-21T19:51:04.907Z,99.90
2023-05-21T19:53:31.697Z,99.90
2023-05-21T19:55:58.513Z,99.90
2023-05-21T19:58:26.995Z,99.90
2023-05-21T20:00:59.171Z,99.90
2023-05-21T20:03:26.839Z,99.90
2023-05-21T20:05:54.236Z,99.90
2023-05-21T20:08:21.445Z,99.90
2023-05-21T20:10:51.428Z,99.90
2023-05-21T20:13:19.029Z,99.90
2023-05-21T20:15:47.819Z,99.90
2023-05-21T20:18:15.594Z,99.90
2023-05-21T20:20:42.880Z,99.90
2023-05-21T20:23:09.735Z,99.90
2023-05-21T20:25:36.578Z,99.90
2023-05-21T20:28:04.294Z,99.90
2023-05-21T20:30:35.921Z,99.90
2023-05-21T20:33:03.865Z,99.90
2023-05-21T20:35:30.819Z,99.90
2023-05-21T20:37:57.725Z,99.90
2023-05-21T20:40:24.770Z,99.90
2023-05-21T20:42:53.537Z,99.90
2023-05-21T20:45:21.080Z,99.90
2023-05-21T20:47:49.696Z,99.90
2023-05-21T20:50:17.702Z,99.90
2023-05-21T20:52:47.026Z,99.90
2023-05-21T20:55:14.615Z,99.90
2023-05-21T20:57:42.102Z,99.90
2023-05-21T21:00:11.527Z,99.90
2023-05-21T21:02:38.904Z,99.90
2023-05-21T21:05:06.316Z,99.90
2023-05-21T21:07:34.129Z,99.90
2023-05-21T21:10:01.416Z,99.90
2023-05-21T21:12:28.553Z,99.90
2023-05-21T21:14:56.076Z,99.90
2023-05-21T21:17:23.188Z,99.90
2023-05-21T21:19:50.076Z,99.90
2023-05-21T21:22:18.266Z,99.90
2023-05-21T21:24:45.569Z,99.90
2023-05-21T21:27:12.567Z,99.90
2023-05-21T21:29:39.378Z,99.90
2023-05-21T21:32:06.665Z,99.90
2023-05-21T21:34:33.461Z,99.90
2023-05-21T21:37:00.265Z,99.90
2023-05-21T21:39:27.150Z,99.90
2023-05-21T21:41:53.984Z,99.90
2023-05-21T21:44:20.765Z,99.90
2023-05-21T21:46:47.576Z,99.90
2023-05-21T21:49:16.693Z,99.90
2023-05-21T21:51:46.694Z,99.90
2023-05-21T21:54:13.467Z,99.90
2023-05-21T21:56:40.286Z,99.90
2023-05-21T21:59:07.018Z,99.90
2023-05-21T22:01:34.044Z,99.90
2023-05-21T22:04:00.968Z,99.90
2023-05-21T22:06:28.605Z,99.90
2023-05-21T22:08:55.511Z,99.90
2023-05-21T22:11:22.685Z,99.90
2023-05-21T22:13:49.502Z,99.90
2023-05-21T22:16:16.362Z,99.90
2023-05-21T22:18:43.194Z,99.90
2023-05-21T22:21:10.820Z,99.90
2023-05-21T22:23:38.376Z,99.90
2023-05-21T22:26:05.866Z,99.90
2023-05-21T22:28:32.827Z,99.90
2023-05-21T22:30:59.655Z,99.90
2023-05-21T22:33:26.804Z,99.90
2023-05-21T22:35:54.422Z,99.90
2023-05-21T22:38:21.535Z,99.90
2023-05-21T22:40:48.450Z,99.90
2023-05-21T22:43:15.283Z,99.90
2023-05-21T22:45:42.255Z,99.90
2023-05-21T22:48:09.724Z,99.90
2023-05-21T22:50:38.585Z,99.90
2023-05-21T22:53:06.436Z,99.90
2023-05-21T22:55:33.231Z,99.90
2023-05-21T22:58:00.039Z,99.90
2023-05-21T23:00:27.177Z,99.90
2023-05-21T23:02:54.794Z,99.90
2023-05-21T23:05:22.210Z,99.90
2023-05-21T23:07:49.654Z,99.90
2023-05-21T23:10:16.605Z,99.90
2023-05-21T23:12:43.398Z,99.90
2023-05-21T23:15:10.730Z,99.90
2023-05-21T23:17:38.447Z,99.90
2023-05-21T23:20:07.387Z,99.90
2023-05-21T23:22:34.823Z,99.90
2023-05-21T23:25:01.763Z,99.90
2023-05-21T23:27:29.267Z,99.90
2023-05-21T23:29:56.336Z,99.90
2023-05-21T23:32:23.564Z,99.90
2023-05-21T23:34:50.767Z,99.90
2023-05-21T23:37:17.606Z,99.90
2023-05-21T23:39:48.097Z,99.90
2023-05-21T23:42:15.704Z,99.90
2023-05-21T23:44:42.515Z,99.90
2023-05-21T23:47:09.728Z,99.90
2023-05-21T23:49:36.460Z,99.90
2023-05-21T23:52:03.588Z,99.90
2023-05-21T23:54:30.780Z,99.90
2023-05-21T23:56:57.551Z,99.90
2023-05-21T23:59:24.314Z,99.90
